createdAt,value
2022-08-30T00:01:14.087Z,98854.06
2022-08-30T00:03:46.599Z,98852.47
2022-08-30T00:06:16.014Z,98850.66
2022-08-30T00:08:43.733Z,98854.97
2022-08-30T00:11:15.123Z,98852.44
2022-08-30T00:13:44.636Z,98861.41
2022-08-30T00:16:12.533Z,98861.34
2022-08-30T00:18:40.497Z,98869.34
2022-08-30T00:21:07.974Z,98873.91
2022-08-30T00:23:34.720Z,98870.63
2022-08-30T00:26:02.736Z,98873.41
2022-08-30T00:28:30.384Z,98865.69
2022-08-30T00:30:57.165Z,98873.97
2022-08-30T00:33:24.429Z,98865.50
2022-08-30T00:35:50.918Z,98866.66
2022-08-30T00:38:17.529Z,98861.72
2022-08-30T00:40:45.629Z,98857.94
2022-08-30T00:43:18.166Z,98861.50
2022-08-30T00:45:46.153Z,98862.88
2022-08-30T00:48:12.774Z,98859.38
2022-08-30T00:50:45.037Z,98860.69
2022-08-30T00:53:16.972Z,98853.75
2022-08-30T00:55:44.466Z,98855.47
2022-08-30T00:58:16.158Z,98858.75
2022-08-30T01:00:43.134Z,98854.31
2022-08-30T01:03:09.916Z,98863.03
2022-08-30T01:05:38.741Z,98856.94
2022-08-30T01:08:05.973Z,98854.31
2022-08-30T01:10:34.617Z,98862.22
2022-08-30T01:13:01.801Z,98864.03
2022-08-30T01:15:28.786Z,98864.91
2022-08-30T01:17:57.055Z,98856.38
2022-08-30T01:20:34.163Z,98859.28
2022-08-30T01:23:12.843Z,98867.34
2022-08-30T01:25:43.148Z,98873.63
2022-08-30T01:28:14.319Z,98870.97
2022-08-30T01:30:43.195Z,98876.50
2022-08-30T01:33:10.882Z,98874.66
2022-08-30T01:35:47.920Z,98870.34
2022-08-30T01:38:16.022Z,98874.81
2022-08-30T01:40:43.012Z,98886.25
2022-08-30T01:43:11.550Z,98884.72
2022-08-30T01:45:38.270Z,98882.44
2022-08-30T01:48:06.732Z,98878.09
2022-08-30T01:50:33.798Z,98875.28
2022-08-30T01:53:00.784Z,98879.75
2022-08-30T01:55:27.807Z,98879.66
2022-08-30T01:57:54.477Z,98881.56
2022-08-30T02:00:21.293Z,98880.09
2022-08-30T02:02:48.049Z,98881.16
2022-08-30T02:05:16.161Z,98868.63
2022-08-30T02:07:42.969Z,98880.09
2022-08-30T02:10:10.581Z,98871.31
2022-08-30T02:12:37.210Z,98873.91
2022-08-30T02:15:04.194Z,98871.16
2022-08-30T02:17:30.831Z,98873.91
2022-08-30T02:19:57.428Z,98874.88
2022-08-30T02:22:24.087Z,98873.03
2022-08-30T02:24:50.677Z,98879.19
2022-08-30T02:27:17.390Z,98874.72
2022-08-30T02:29:45.131Z,98873.16
2022-08-30T02:32:11.761Z,98871.56
2022-08-30T02:34:38.269Z,98869.94
2022-08-30T02:37:06.073Z,98863.69
2022-08-30T02:39:32.673Z,98866.63
2022-08-30T02:41:59.435Z,98870.09
2022-08-30T02:44:26.122Z,98856.31
2022-08-30T02:46:52.790Z,98855.41
2022-08-30T02:49:34.955Z,98848.16
2022-08-30T02:52:03.742Z,98851.81
2022-08-30T02:54:33.136Z,98851.97
2022-08-30T02:57:04.794Z,98851.19
2022-08-30T02:59:32.216Z,98847.69
2022-08-30T03:01:59.202Z,98843.13
2022-08-30T03:04:26.581Z,98845.78
2022-08-30T03:06:53.540Z,98841.19
2022-08-30T03:09:20.125Z,98836.72
2022-08-30T03:11:46.830Z,98841.41
2022-08-30T03:14:13.411Z,98843.38
2022-08-30T03:16:40.119Z,98845.91
2022-08-30T03:19:06.702Z,98843.16
2022-08-30T03:21:33.403Z,98840.69
2022-08-30T03:24:00.865Z,98851.19
2022-08-30T03:26:27.465Z,98847.78
2022-08-30T03:28:54.005Z,98845.31
2022-08-30T03:31:20.535Z,98848.94
2022-08-30T03:33:47.229Z,98841.88
2022-08-30T03:36:13.898Z,98835.00
2022-08-30T03:38:40.580Z,98845.47
2022-08-30T03:41:07.983Z,98840.94
2022-08-30T03:43:35.814Z,98838.38
2022-08-30T03:46:03.508Z,98839.22
2022-08-30T03:48:30.354Z,98832.47
2022-08-30T03:50:57.649Z,98841.31
2022-08-30T03:53:25.780Z,98837.16
2022-08-30T03:55:54.234Z,98843.34
2022-08-30T03:58:22.389Z,98844.28
2022-08-30T04:00:49.324Z,98842.63
2022-08-30T04:03:16.240Z,98845.38
2022-08-30T04:05:42.970Z,98840.25
2022-08-30T04:08:09.668Z,98852.50
2022-08-30T04:10:36.428Z,98852.50
2022-08-30T04:13:03.253Z,98854.31
2022-08-30T04:15:29.844Z,98857.91
2022-08-30T04:17:56.627Z,98857.13
2022-08-30T04:20:23.409Z,98867.91
2022-08-30T04:22:51.638Z,98872.44
2022-08-30T04:25:18.395Z,98873.09
2022-08-30T04:27:46.652Z,98875.69
2022-08-30T04:30:15.678Z,98873.78
2022-08-30T04:32:43.130Z,98873.75
2022-08-30T04:35:10.821Z,98882.31
2022-08-30T04:37:38.593Z,98880.31
2022-08-30T04:40:06.159Z,98881.78
2022-08-30T04:42:34.983Z,98882.56
2022-08-30T04:45:04.015Z,98871.06
2022-08-30T04:47:30.754Z,98878.88
2022-08-30T04:49:57.510Z,98883.09
2022-08-30T04:52:24.107Z,98890.16
2022-08-30T04:54:57.607Z,98884.84
2022-08-30T04:57:26.072Z,98881.16
2022-08-30T04:59:52.841Z,98888.22
2022-08-30T05:02:19.881Z,98897.78
2022-08-30T05:05:09.932Z,98892.22
2022-08-30T05:07:37.110Z,98903.44
2022-08-30T05:10:10.486Z,98901.47
2022-08-30T05:12:37.870Z,98903.06
2022-08-30T05:15:05.835Z,98908.25
2022-08-30T05:17:32.611Z,98906.53
2022-08-30T05:20:02.260Z,98907.09
2022-08-30T05:22:28.835Z,98916.38
2022-08-30T05:24:55.491Z,98909.72
2022-08-30T05:27:22.307Z,98915.28
2022-08-30T05:29:49.044Z,98920.88
2022-08-30T05:32:15.653Z,98921.34
2022-08-30T05:34:42.326Z,98922.53
2022-08-30T05:37:09.074Z,98922.06
2022-08-30T05:39:45.970Z,98924.13
2022-08-30T05:42:18.416Z,98926.78
2022-08-30T05:44:45.105Z,98925.00
2022-08-30T05:47:11.660Z,98925.75
2022-08-30T05:49:38.266Z,98913.41
2022-08-30T05:52:05.434Z,98923.81
2022-08-30T05:54:32.048Z,98915.84
2022-08-30T05:56:59.658Z,98922.16
2022-08-30T05:59:26.298Z,98920.53
2022-08-30T06:01:57.388Z,98919.72
2022-08-30T06:04:24.580Z,98928.47
2022-08-30T06:06:51.242Z,98936.75
2022-08-30T06:09:18.226Z,98931.25
2022-08-30T06:11:46.256Z,98927.59
2022-08-30T06:14:14.228Z,98920.19
2022-08-30T06:16:41.780Z,98920.78
2022-08-30T06:19:11.138Z,98912.81
2022-08-30T06:21:39.636Z,98917.44
2022-08-30T06:24:08.900Z,98929.16
2022-08-30T06:26:41.505Z,98926.63
2022-08-30T06:29:09.530Z,98915.66
2022-08-30T06:31:36.311Z,98923.47
2022-08-30T06:34:03.901Z,98914.22
2022-08-30T06:36:31.667Z,98919.31
2022-08-30T06:39:00.478Z,98915.09
2022-08-30T06:41:29.863Z,98925.75
2022-08-30T06:43:58.445Z,98917.72
2022-08-30T06:46:32.615Z,98920.84
2022-08-30T06:49:00.012Z,98923.25
2022-08-30T06:51:30.461Z,98920.00
2022-08-30T06:53:58.919Z,98921.66
2022-08-30T06:56:27.602Z,98921.59
2022-08-30T06:58:54.500Z,98911.19
2022-08-30T07:01:25.213Z,98918.84
2022-08-30T07:03:53.274Z,98919.19
2022-08-30T07:06:21.042Z,98922.13
2022-08-30T07:08:48.078Z,98914.06
2022-08-30T07:11:14.779Z,98922.16
2022-08-30T07:13:41.372Z,98928.84
2022-08-30T07:16:13.596Z,98927.16
2022-08-30T07:18:56.239Z,98924.38
2022-08-30T07:21:28.992Z,98925.22
2022-08-30T07:23:57.903Z,98927.16
2022-08-30T07:26:34.554Z,98923.09
2022-08-30T07:29:02.469Z,98921.22
2022-08-30T07:31:29.723Z,98926.41
2022-08-30T07:33:56.802Z,98928.13
2022-08-30T07:36:24.531Z,98926.50
2022-08-30T07:38:52.305Z,98932.13
2022-08-30T07:41:22.218Z,98937.91
2022-08-30T07:43:48.838Z,98933.50
2022-08-30T07:46:16.403Z,98928.72
2022-08-30T07:48:44.264Z,98922.91
2022-08-30T07:51:19.917Z,98934.75
2022-08-30T07:53:46.827Z,98922.59
2022-08-30T07:56:14.217Z,98940.81
2022-08-30T07:58:41.058Z,98936.50
2022-08-30T08:01:09.685Z,98930.94
2022-08-30T08:03:37.831Z,98925.59
2022-08-30T08:06:06.283Z,98917.41
2022-08-30T08:08:33.442Z,98930.38
2022-08-30T08:11:08.249Z,98924.53
2022-08-30T08:13:37.848Z,98931.16
2022-08-30T08:16:20.662Z,98919.16
2022-08-30T08:18:47.387Z,98932.75
2022-08-30T08:21:24.501Z,98934.81
2022-08-30T08:23:51.666Z,98933.94
2022-08-30T08:26:19.012Z,98932.13
2022-08-30T08:28:47.242Z,98927.56
2022-08-30T08:31:23.673Z,98928.94
2022-08-30T08:33:55.652Z,98932.75
2022-08-30T08:36:22.611Z,98935.56
2022-08-30T08:38:49.187Z,98932.00
2022-08-30T08:41:28.848Z,98923.38
2022-08-30T08:43:55.636Z,98927.06
2022-08-30T08:46:37.842Z,98936.28
2022-08-30T08:49:07.474Z,98931.56
2022-08-30T08:51:57.390Z,98933.03
2022-08-30T08:54:39.198Z,98938.16
2022-08-30T08:57:06.067Z,98930.03
2022-08-30T08:59:32.936Z,98927.66
2022-08-30T09:02:03.181Z,98931.78
2022-08-30T09:04:37.865Z,98929.56
2022-08-30T09:07:32.765Z,98927.88
2022-08-30T09:10:00.747Z,98926.66
2022-08-30T09:12:28.323Z,98925.25
2022-08-30T09:15:01.436Z,98916.91
2022-08-30T09:17:28.862Z,98922.94
2022-08-30T09:19:55.679Z,98922.25
2022-08-30T09:22:35.369Z,98920.78
2022-08-30T09:25:14.411Z,98910.25
2022-08-30T09:27:43.786Z,98918.44
2022-08-30T09:30:21.269Z,98905.25
2022-08-30T09:33:07.781Z,98904.97
2022-08-30T09:35:36.121Z,98905.19
2022-08-30T09:38:08.835Z,98904.88
2022-08-30T09:40:47.215Z,98906.06
2022-08-30T09:43:16.594Z,98899.63
2022-08-30T09:45:47.517Z,98895.69
2022-08-30T09:48:31.285Z,98898.13
2022-08-30T09:51:15.884Z,98896.13
2022-08-30T09:54:16.778Z,98890.47
2022-08-30T09:56:57.914Z,98895.78
2022-08-30T09:59:34.625Z,98890.41
2022-08-30T10:02:21.154Z,98890.97
2022-08-30T10:04:57.813Z,98884.25
2022-08-30T10:07:51.900Z,98883.75
2022-08-30T10:10:41.777Z,98889.72
2022-08-30T10:13:35.268Z,98886.31
2022-08-30T10:16:14.410Z,98871.44
2022-08-30T10:18:51.315Z,98882.34
2022-08-30T10:21:35.801Z,98873.63
2022-08-30T10:24:11.282Z,98872.91
2022-08-30T10:26:47.858Z,98862.97
2022-08-30T10:29:31.625Z,98871.03
2022-08-30T10:32:06.229Z,98867.69
2022-08-30T10:34:43.937Z,98875.13
2022-08-30T10:37:16.851Z,98872.41
2022-08-30T10:39:48.998Z,98878.41
2022-08-30T10:42:23.580Z,98871.44
2022-08-30T10:45:01.273Z,98873.59
2022-08-30T10:47:53.758Z,98874.53
2022-08-30T10:50:36.005Z,98861.81
2022-08-30T10:53:24.985Z,98874.91
2022-08-30T10:56:08.970Z,98863.25
2022-08-30T10:58:39.220Z,98874.75
2022-08-30T11:01:38.252Z,98872.16
2022-08-30T11:04:44.528Z,98872.00
2022-08-30T11:07:27.737Z,98868.03
2022-08-30T11:10:16.461Z,98869.13
2022-08-30T11:12:58.741Z,98865.81
2022-08-30T11:15:31.635Z,98867.16
2022-08-30T11:18:00.443Z,98865.06
2022-08-30T11:20:42.021Z,98864.69
2022-08-30T11:23:36.307Z,98859.94
2022-08-30T11:26:13.975Z,98864.50
2022-08-30T11:28:47.103Z,98867.66
2022-08-30T11:31:23.590Z,98859.59
2022-08-30T11:33:57.807Z,98857.47
2022-08-30T11:36:37.341Z,98853.28
2022-08-30T11:39:07.385Z,98855.78
2022-08-30T11:41:34.203Z,98856.19
2022-08-30T11:44:21.825Z,98857.06
2022-08-30T11:47:01.153Z,98847.97
2022-08-30T11:49:41.765Z,98847.63
2022-08-30T11:52:33.035Z,98842.53
2022-08-30T11:55:17.931Z,98844.66
2022-08-30T11:58:11.588Z,98849.13
2022-08-30T12:00:42.189Z,98838.00
2022-08-30T12:03:14.958Z,98833.75
2022-08-30T12:05:45.622Z,98832.91
2022-08-30T12:08:20.821Z,98848.28
2022-08-30T12:10:58.467Z,98835.06
2022-08-30T12:13:37.179Z,98828.94
2022-08-30T12:16:22.554Z,98833.78
2022-08-30T12:19:01.542Z,98835.47
2022-08-30T12:21:43.679Z,98841.31
2022-08-30T12:24:23.848Z,98826.66
2022-08-30T12:26:52.426Z,98829.38
2022-08-30T12:29:28.276Z,98830.34
2022-08-30T12:31:59.093Z,98824.34
2022-08-30T12:34:25.650Z,98828.91
2022-08-30T12:36:55.160Z,98820.88
2022-08-30T12:39:31.316Z,98817.59
2022-08-30T12:42:17.818Z,98808.25
2022-08-30T12:44:46.159Z,98822.59
2022-08-30T12:47:18.268Z,98805.72
2022-08-30T12:49:46.457Z,98804.66
2022-08-30T12:52:28.891Z,98799.69
2022-08-30T12:55:05.205Z,98802.41
2022-08-30T12:58:00.756Z,98794.03
2022-08-30T13:00:35.477Z,98800.94
2022-08-30T13:03:25.763Z,98794.66
2022-08-30T13:05:53.083Z,98794.59
2022-08-30T13:08:23.160Z,98792.63
2022-08-30T13:10:56.653Z,98791.69
2022-08-30T13:13:45.033Z,98801.84
2022-08-30T13:16:17.708Z,98797.78
2022-08-30T13:18:46.721Z,98787.59
2022-08-30T13:21:33.038Z,98790.50
2022-08-30T13:24:05.817Z,98781.94
2022-08-30T13:26:36.432Z,98788.66
2022-08-30T13:29:08.816Z,98794.69
2022-08-30T13:31:37.655Z,98792.56
2022-08-30T13:34:05.301Z,98790.13
2022-08-30T13:36:35.516Z,98797.22
2022-08-30T13:39:03.991Z,98791.59
2022-08-30T13:41:34.466Z,98800.91
2022-08-30T13:44:20.211Z,98804.03
2022-08-30T13:46:54.506Z,98795.25
2022-08-30T13:49:47.861Z,98794.03
2022-08-30T13:52:21.349Z,98792.06
2022-08-30T13:54:53.428Z,98797.31
2022-08-30T14:00:17.908Z,98792.41
2022-08-30T14:02:51.491Z,98789.94
2022-08-30T14:05:48.432Z,98794.53
2022-08-30T14:11:00.438Z,98788.13
2022-08-30T14:13:29.444Z,98793.38
2022-08-30T14:18:46.845Z,98789.16
2022-08-30T14:21:13.516Z,98787.44
2022-08-30T14:23:40.164Z,98792.56
2022-08-30T14:26:17.228Z,98791.84
2022-08-30T14:28:45.023Z,98783.38
2022-08-30T14:31:13.445Z,98789.50
2022-08-30T14:33:40.240Z,98781.56
2022-08-30T14:36:12.409Z,98784.38
2022-08-30T14:38:42.718Z,98778.63
2022-08-30T14:41:10.901Z,98780.59
2022-08-30T14:43:40.663Z,98776.66
2022-08-30T14:46:08.533Z,98791.56
2022-08-30T14:48:36.925Z,98773.09
2022-08-30T14:51:11.086Z,98783.38
2022-08-30T14:53:37.872Z,98774.44
2022-08-30T14:56:14.319Z,98773.22
2022-08-30T14:58:40.960Z,98770.25
2022-08-30T15:01:10.178Z,98761.94
2022-08-30T15:03:40.476Z,98765.91
2022-08-30T15:06:07.767Z,98766.63
2022-08-30T15:08:35.697Z,98768.00
2022-08-30T15:11:08.547Z,98770.47
2022-08-30T15:13:35.549Z,98770.81
2022-08-30T15:16:02.493Z,98772.22
2022-08-30T15:18:29.090Z,98772.03
2022-08-30T15:20:56.585Z,98780.28
2022-08-30T15:23:24.801Z,98766.22
2022-08-30T15:25:51.785Z,98767.28
2022-08-30T15:28:19.324Z,98770.72
2022-08-30T15:30:46.301Z,98762.66
2022-08-30T15:33:13.062Z,98766.84
2022-08-30T15:35:41.330Z,98763.66
2022-08-30T15:38:08.380Z,98762.75
2022-08-30T15:40:39.579Z,98765.81
2022-08-30T15:43:06.694Z,98758.28
2022-08-30T15:45:33.521Z,98757.88
2022-08-30T15:48:01.510Z,98754.81
2022-08-30T15:50:29.359Z,98752.50
2022-08-30T15:52:56.793Z,98749.25
2022-08-30T15:55:23.417Z,98743.34
2022-08-30T15:57:50.297Z,98746.50
2022-08-30T16:00:17.614Z,98740.34
2022-08-30T16:02:48.225Z,98739.84
2022-08-30T16:05:15.584Z,98746.44
2022-08-30T16:07:46.732Z,98741.81
2022-08-30T16:10:14.757Z,98749.56
2022-08-30T16:12:41.480Z,98744.31
2022-08-30T16:15:09.032Z,98737.47
2022-08-30T16:17:36.268Z,98738.78
2022-08-30T16:20:05.302Z,98740.31
2022-08-30T16:22:33.076Z,98731.22
2022-08-30T16:24:59.741Z,98736.78
2022-08-30T16:27:26.425Z,98735.06
2022-08-30T16:29:53.200Z,98740.88
2022-08-30T16:32:20.430Z,98727.72
2022-08-30T16:34:47.042Z,98724.44
2022-08-30T16:37:13.747Z,98729.16
2022-08-30T16:39:40.512Z,98729.41
2022-08-30T16:42:13.060Z,98734.97
2022-08-30T16:44:40.245Z,98730.25
2022-08-30T16:47:11.414Z,98731.34
2022-08-30T16:49:40.026Z,98729.41
2022-08-30T16:52:06.820Z,98727.25
2022-08-30T16:54:33.731Z,98733.47
2022-08-30T16:57:00.401Z,98718.66
2022-08-30T16:59:27.087Z,98726.91
2022-08-30T17:01:53.839Z,98717.03
2022-08-30T17:04:21.203Z,98721.66
2022-08-30T17:06:50.193Z,98718.19
2022-08-30T17:09:17.913Z,98724.66
2022-08-30T17:11:44.933Z,98726.34
2022-08-30T17:14:11.721Z,98729.78
2022-08-30T17:16:38.547Z,98726.88
2022-08-30T17:19:08.448Z,98736.84
2022-08-30T17:21:35.500Z,98737.72
2022-08-30T17:24:03.194Z,98743.25
2022-08-30T17:26:32.473Z,98744.78
2022-08-30T17:28:59.094Z,98749.47
2022-08-30T17:31:29.220Z,98745.53
2022-08-30T17:34:01.198Z,98750.75
2022-08-30T17:36:31.633Z,98741.47
2022-08-30T17:38:58.254Z,98751.44
2022-08-30T17:41:24.876Z,98757.19
2022-08-30T17:43:51.550Z,98750.34
2022-08-30T17:46:19.563Z,98760.69
2022-08-30T17:48:46.459Z,98763.00
2022-08-30T17:51:13.428Z,98763.59
2022-08-30T17:53:40.084Z,98770.34
2022-08-30T17:56:10.295Z,98776.28
2022-08-30T17:58:37.008Z,98778.00
2022-08-30T18:01:11.721Z,98772.38
2022-08-30T18:03:39.497Z,98778.69
2022-08-30T18:06:06.600Z,98785.66
2022-08-30T18:08:33.897Z,98786.88
2022-08-30T18:11:03.544Z,98792.03
2022-08-30T18:13:33.178Z,98791.16
2022-08-30T18:16:02.916Z,98800.59
2022-08-30T18:18:31.004Z,98795.06
2022-08-30T18:20:58.682Z,98797.06
2022-08-30T18:23:26.975Z,98797.72
2022-08-30T18:25:57.112Z,98802.75
2022-08-30T18:28:23.980Z,98801.00
2022-08-30T18:30:52.692Z,98808.16
2022-08-30T18:33:20.106Z,98811.97
2022-08-30T18:35:48.732Z,98814.91
2022-08-30T18:38:15.496Z,98813.50
2022-08-30T18:40:43.003Z,98821.28
2022-08-30T18:43:10.676Z,98804.06
2022-08-30T18:45:38.419Z,98801.47
2022-08-30T18:48:06.037Z,98812.53
2022-08-30T18:50:33.030Z,98811.81
2022-08-30T18:53:00.772Z,98821.22
2022-08-30T18:55:27.734Z,98819.75
2022-08-30T18:57:54.316Z,98819.06
2022-08-30T19:00:21.696Z,98821.31
2022-08-30T19:02:48.246Z,98820.19
2022-08-30T19:05:16.858Z,98813.50
2022-08-30T19:07:44.020Z,98813.81
2022-08-30T19:10:12.529Z,98825.59
2022-08-30T19:12:39.602Z,98822.50
2022-08-30T19:15:10.967Z,98831.28
2022-08-30T19:17:40.271Z,98826.41
2022-08-30T19:20:11.154Z,98831.44
2022-08-30T19:23:06.345Z,98829.00
2022-08-30T19:25:25.766Z,98825.97
2022-08-30T19:27:52.504Z,98826.91
2022-08-30T19:30:29.374Z,98830.69
2022-08-30T19:32:56.977Z,98834.44
2022-08-30T19:35:24.231Z,98836.53
2022-08-30T19:37:50.996Z,98841.41
2022-08-30T19:40:19.119Z,98844.69
2022-08-30T19:42:46.781Z,98848.47
2022-08-30T19:45:18.331Z,98849.81
2022-08-30T19:47:45.790Z,98845.97
2022-08-30T19:50:13.769Z,98847.69
2022-08-30T19:52:40.492Z,98849.41
2022-08-30T19:55:09.381Z,98844.09
2022-08-30T19:57:36.288Z,98845.84
2022-08-30T20:00:06.152Z,98838.75
2022-08-30T20:02:33.547Z,98841.44
2022-08-30T20:05:00.990Z,98848.41
2022-08-30T20:07:31.070Z,98839.09
2022-08-30T20:10:00.507Z,98842.53
2022-08-30T20:12:27.138Z,98842.53
2022-08-30T20:14:53.800Z,98836.44
2022-08-30T20:17:25.320Z,98831.34
2022-08-30T20:19:53.007Z,98830.66
2022-08-30T20:22:19.583Z,98829.06
2022-08-30T20:24:46.271Z,98838.94
2022-08-30T20:27:13.099Z,98838.78
2022-08-30T20:29:40.340Z,98848.91
2022-08-30T20:32:07.704Z,98842.50
2022-08-30T20:34:34.341Z,98838.59
2022-08-30T20:37:00.982Z,98844.69
2022-08-30T20:39:27.759Z,98843.09
2022-08-30T20:41:54.474Z,98834.16
2022-08-30T20:44:21.254Z,98831.22
2022-08-30T20:46:50.579Z,98823.41
2022-08-30T20:49:17.575Z,98820.72
2022-08-30T20:51:44.256Z,98819.88
2022-08-30T20:54:10.919Z,98824.88
2022-08-30T20:56:37.598Z,98830.44
2022-08-30T20:59:05.913Z,98835.03
2022-08-30T21:01:35.722Z,98835.66
2022-08-30T21:04:05.655Z,98840.50
2022-08-30T21:06:37.529Z,98839.16
2022-08-30T21:09:06.784Z,98828.63
2022-08-30T21:11:34.846Z,98836.94
2022-08-30T21:14:01.900Z,98839.72
2022-08-30T21:16:30.039Z,98843.19
2022-08-30T21:18:57.279Z,98839.88
2022-08-30T21:21:25.798Z,98841.88
2022-08-30T21:23:54.114Z,98844.09
2022-08-30T21:26:20.995Z,98843.75
2022-08-30T21:28:50.232Z,98854.56
2022-08-30T21:31:20.455Z,98860.00
2022-08-30T21:33:49.123Z,98852.97
2022-08-30T21:36:35.332Z,98853.91
2022-08-30T21:39:02.679Z,98849.69
2022-08-30T21:41:31.597Z,98850.38
2022-08-30T21:44:00.640Z,98852.38
2022-08-30T21:46:28.835Z,98852.38
2022-08-30T21:48:58.350Z,98847.56
2022-08-30T21:51:25.245Z,98845.41
2022-08-30T21:53:51.765Z,98848.22
2022-08-30T21:56:22.173Z,98863.75
2022-08-30T21:58:49.626Z,98869.06
2022-08-30T22:01:17.690Z,98862.16
2022-08-30T22:03:45.282Z,98865.22
2022-08-30T22:06:14.169Z,98862.16
2022-08-30T22:08:43.764Z,98862.44
2022-08-30T22:11:12.528Z,98868.03
2022-08-30T22:13:42.837Z,98869.09
2022-08-30T22:16:12.028Z,98870.03
2022-08-30T22:18:39.555Z,98868.28
2022-08-30T22:21:08.398Z,98874.56
2022-08-30T22:23:35.360Z,98875.69
2022-08-30T22:26:02.611Z,98885.34
2022-08-30T22:28:29.362Z,98883.66
2022-08-30T22:30:56.049Z,98874.19
2022-08-30T22:33:22.605Z,98885.69
2022-08-30T22:35:49.220Z,98883.81
2022-08-30T22:38:15.863Z,98889.03
2022-08-30T22:40:50.562Z,98884.81
2022-08-30T22:43:18.233Z,98884.06
2022-08-30T22:45:45.012Z,98891.53
2022-08-30T22:48:12.232Z,98884.75
2022-08-30T22:50:39.100Z,98892.78
2022-08-30T22:53:06.101Z,98890.69
2022-08-30T22:55:32.651Z,98892.00
2022-08-30T22:57:59.405Z,98901.44
2022-08-30T23:00:26.126Z,98887.63
2022-08-30T23:02:53.771Z,98896.88
2022-08-30T23:05:22.784Z,98895.25
2022-08-30T23:07:50.881Z,98899.81
2022-08-30T23:10:18.042Z,98901.69
2022-08-30T23:12:44.918Z,98907.31
2022-08-30T23:15:14.239Z,98906.03
2022-08-30T23:17:40.845Z,98905.34
2022-08-30T23:20:08.460Z,98907.19
2022-08-30T23:22:35.015Z,98908.97
2022-08-30T23:25:20.290Z,98898.63
2022-08-30T23:28:05.165Z,98910.50
2022-08-30T23:30:50.098Z,98909.03
2022-08-30T23:33:35.583Z,98902.84
2022-08-30T23:36:29.364Z,98898.66
2022-08-30T23:39:14.600Z,98897.84
2022-08-30T23:42:00.114Z,98897.13
2022-08-30T23:44:45.017Z,98887.47
2022-08-30T23:47:30.452Z,98891.19
2022-08-30T23:50:17.108Z,98883.59
2022-08-30T23:53:01.960Z,98886.34
2022-08-30T23:55:47.113Z,98883.31
2022-08-30T23:58:32.103Z,98877.81
